sensor_id;sensor_type;location;lat;lon;timestamp;P1;P2;P0
54021;PMS7003;39936;51.058;17.220;2023-06-24T00:00:14;2;2;2
54021;PMS7003;39936;51.058;17.220;2023-06-24T00:04:02;9;8;3
54021;PMS7003;39936;51.058;17.220;2023-06-24T00:07:46;5;5;3
54021;PMS7003;39936;51.058;17.220;2023-06-24T00:11:10;3;3;1
54021;PMS7003;39936;51.058;17.220;2023-06-24T00:15:22;13;10;7
54021;PMS7003;39936;51.058;17.220;2023-06-24T00:19:24;14;10;6
54021;PMS7003;39936;51.058;17.220;2023-06-24T00:22:58;11;6;4
54021;PMS7003;39936;51.058;17.220;2023-06-24T00:26:29;11;10;5
54021;PMS7003;39936;51.058;17.220;2023-06-24T00:30:00;11;8;5
54021;PMS7003;39936;51.058;17.220;2023-06-24T00:33:25;18;11;6
54021;PMS7003;39936;51.058;17.220;2023-06-24T00:37:37;10;6;4
54021;PMS7003;39936;51.058;17.220;2023-06-24T00:41:07;6;6;3
54021;PMS7003;39936;51.058;17.220;2023-06-24T00:44:51;2;2;1
54021;PMS7003;39936;51.058;17.220;2023-06-24T00:48:15;7;7;4
54021;PMS7003;39936;51.058;17.220;2023-06-24T00:51:37;10;8;4
54021;PMS7003;39936;51.058;17.220;2023-06-24T00:55:28;10;8;5
54021;PMS7003;39936;51.058;17.220;2023-06-24T00:58:47;7;4;2
54021;PMS7003;39936;51.058;17.220;2023-06-24T01:02:10;4;3;3
54021;PMS7003;39936;51.058;17.220;2023-06-24T01:06:11;18;13;8
54021;PMS7003;39936;51.058;17.220;2023-06-24T01:09:30;5;4;2
54021;PMS7003;39936;51.058;17.220;2023-06-24T01:13:12;8;6;3
54021;PMS7003;39936;51.058;17.220;2023-06-24T01:24:14;7;6;3
54021;PMS7003;39936;51.058;17.220;2023-06-24T01:35:31;31;27;16
54021;PMS7003;39936;51.058;17.220;2023-06-24T01:39:13;23;19;12
54021;PMS7003;39936;51.058;17.220;2023-06-24T01:42:52;13;10;4
54021;PMS7003;39936;51.058;17.220;2023-06-24T01:46:38;8;8;6
54021;PMS7003;39936;51.058;17.220;2023-06-24T01:54:26;3;2;1
54021;PMS7003;39936;51.058;17.220;2023-06-24T01:57:58;7;5;2
54021;PMS7003;39936;51.058;17.220;2023-06-24T02:01:27;7;6;2
54021;PMS7003;39936;51.058;17.220;2023-06-24T02:04:49;8;8;5
54021;PMS7003;39936;51.058;17.220;2023-06-24T02:08:51;17;13;9
54021;PMS7003;39936;51.058;17.220;2023-06-24T02:12:44;18;16;8
54021;PMS7003;39936;51.058;17.220;2023-06-24T02:16:02;5;5;2
54021;PMS7003;39936;51.058;17.220;2023-06-24T02:19:42;14;12;8
54021;PMS7003;39936;51.058;17.220;2023-06-24T02:23:03;7;6;4
54021;PMS7003;39936;51.058;17.220;2023-06-24T02:26:58;10;9;6
54021;PMS7003;39936;51.058;17.220;2023-06-24T02:30:34;11;10;6
54021;PMS7003;39936;51.058;17.220;2023-06-24T02:33:55;8;5;2
54021;PMS7003;39936;51.058;17.220;2023-06-24T02:37:17;14;11;7
54021;PMS7003;39936;51.058;17.220;2023-06-24T02:40:49;11;9;5
54021;PMS7003;39936;51.058;17.220;2023-06-24T02:44:10;6;4;1
54021;PMS7003;39936;51.058;17.220;2023-06-24T02:47:32;7;6;3
54021;PMS7003;39936;51.058;17.220;2023-06-24T02:50:55;7;7;6
54021;PMS7003;39936;51.058;17.220;2023-06-24T02:54:29;10;5;3
54021;PMS7003;39936;51.058;17.220;2023-06-24T02:57:51;6;6;4
54021;PMS7003;39936;51.058;17.220;2023-06-24T03:02:01;7;4;2
54021;PMS7003;39936;51.058;17.220;2023-06-24T03:05:21;10;9;4
54021;PMS7003;39936;51.058;17.220;2023-06-24T03:12:50;7;7;3
54021;PMS7003;39936;51.058;17.220;2023-06-24T03:16:15;10;7;3
54021;PMS7003;39936;51.058;17.220;2023-06-24T03:19:33;8;7;5
54021;PMS7003;39936;51.058;17.220;2023-06-24T03:23:07;3;2;1
54021;PMS7003;39936;51.058;17.220;2023-06-24T03:26:31;4;3;2
54021;PMS7003;39936;51.058;17.220;2023-06-24T03:30:06;3;3;1
54021;PMS7003;39936;51.058;17.220;2023-06-24T03:33:26;4;4;2
54021;PMS7003;39936;51.058;17.220;2023-06-24T03:37:05;6;6;4
54021;PMS7003;39936;51.058;17.220;2023-06-24T03:40:26;10;8;5
54021;PMS7003;39936;51.058;17.220;2023-06-24T03:43:46;8;7;5
54021;PMS7003;39936;51.058;17.220;2023-06-24T03:47:31;9;6;4
54021;PMS7003;39936;51.058;17.220;2023-06-24T03:51:05;11;10;6
54021;PMS7003;39936;51.058;17.220;2023-06-24T03:54:48;10;10;6
54021;PMS7003;39936;51.058;17.220;2023-06-24T03:58:11;11;8;5
54021;PMS7003;39936;51.058;17.220;2023-06-24T04:02:29;14;13;5
54021;PMS7003;39936;51.058;17.220;2023-06-24T04:05:55;14;9;6
54021;PMS7003;39936;51.058;17.220;2023-06-24T04:09:32;16;14;8
54021;PMS7003;39936;51.058;17.220;2023-06-24T04:12:50;8;5;3
54021;PMS7003;39936;51.058;17.220;2023-06-24T04:16:12;6;4;2
54021;PMS7003;39936;51.058;17.220;2023-06-24T04:19:45;9;8;5
54021;PMS7003;39936;51.058;17.220;2023-06-24T04:23:08;13;8;4
54021;PMS7003;39936;51.058;17.220;2023-06-24T04:26:53;5;5;1
54021;PMS7003;39936;51.058;17.220;2023-06-24T04:30:31;10;8;4
54021;PMS7003;39936;51.058;17.220;2023-06-24T04:34:08;8;5;3
54021;PMS7003;39936;51.058;17.220;2023-06-24T04:38:10;9;5;3
54021;PMS7003;39936;51.058;17.220;2023-06-24T04:42:01;6;6;4
54021;PMS7003;39936;51.058;17.220;2023-06-24T04:45:34;8;5;4
54021;PMS7003;39936;51.058;17.220;2023-06-24T04:49:25;8;6;3
54021;PMS7003;39936;51.058;17.220;2023-06-24T04:52:52;7;5;2
54021;PMS7003;39936;51.058;17.220;2023-06-24T04:56:23;1;1;0
54021;PMS7003;39936;51.058;17.220;2023-06-24T04:59:42;5;5;2
54021;PMS7003;39936;51.058;17.220;2023-06-24T05:03:03;6;4;1
54021;PMS7003;39936;51.058;17.220;2023-06-24T05:06:31;14;12;6
54021;PMS7003;39936;51.058;17.220;2023-06-24T05:09:49;7;3;1
54021;PMS7003;39936;51.058;17.220;2023-06-24T05:13:10;7;5;2
54021;PMS7003;39936;51.058;17.220;2023-06-24T05:16:39;8;7;4
54021;PMS7003;39936;51.058;17.220;2023-06-24T05:19:57;10;5;2
54021;PMS7003;39936;51.058;17.220;2023-06-24T05:23:31;4;4;2
54021;PMS7003;39936;51.058;17.220;2023-06-24T05:26:52;4;4;2
54021;PMS7003;39936;51.058;17.220;2023-06-24T05:30:21;9;6;3
54021;PMS7003;39936;51.058;17.220;2023-06-24T05:33:53;4;3;0
54021;PMS7003;39936;51.058;17.220;2023-06-24T05:37:32;8;3;0
54021;PMS7003;39936;51.058;17.220;2023-06-24T05:41:07;9;9;4
54021;PMS7003;39936;51.058;17.220;2023-06-24T05:44:29;4;4;2
54021;PMS7003;39936;51.058;17.220;2023-06-24T05:48:04;2;0;0
54021;PMS7003;39936;51.058;17.220;2023-06-24T05:51:53;2;0;0
54021;PMS7003;39936;51.058;17.220;2023-06-24T05:55:20;3;3;2
54021;PMS7003;39936;51.058;17.220;2023-06-24T05:58:49;2;2;0
54021;PMS7003;39936;51.058;17.220;2023-06-24T06:02:20;2;1;0
54021;PMS7003;39936;51.058;17.220;2023-06-24T06:05:41;0;0;0
54021;PMS7003;39936;51.058;17.220;2023-06-24T06:08:56;2;0;0
54021;PMS7003;39936;51.058;17.220;2023-06-24T06:13:07;0;0;0
54021;PMS7003;39936;51.058;17.220;2023-06-24T06:16:38;2;2;1
54021;PMS7003;39936;51.058;17.220;2023-06-24T06:19:56;1;1;0
54021;PMS7003;39936;51.058;17.220;2023-06-24T06:23:17;2;1;0
54021;PMS7003;39936;51.058;17.220;2023-06-24T06:27:13;4;3;1
54021;PMS7003;39936;51.058;17.220;2023-06-24T06:34:25;1;1;0
54021;PMS7003;39936;51.058;17.220;2023-06-24T06:37:47;1;1;0
54021;PMS7003;39936;51.058;17.220;2023-06-24T06:41:12;0;0;0
54021;PMS7003;39936;51.058;17.220;2023-06-24T06:44:35;0;0;0
54021;PMS7003;39936;51.058;17.220;2023-06-24T06:48:07;3;1;0
54021;PMS7003;39936;51.058;17.220;2023-06-24T06:51:32;0;0;0
54021;PMS7003;39936;51.058;17.220;2023-06-24T06:55:05;1;1;0
54021;PMS7003;39936;51.058;17.220;2023-06-24T06:58:26;5;3;1
54021;PMS7003;39936;51.058;17.220;2023-06-24T07:01:46;3;2;0
54021;PMS7003;39936;51.058;17.220;2023-06-24T07:05:08;6;4;1
54021;PMS7003;39936;51.058;17.220;2023-06-24T07:08:27;1;0;0
54021;PMS7003;39936;51.058;17.220;2023-06-24T07:11:49;6;4;1
54021;PMS7003;39936;51.058;17.220;2023-06-24T07:15:43;6;2;0
54021;PMS7003;39936;51.058;17.220;2023-06-24T07:19:10;4;2;1
54021;PMS7003;39936;51.058;17.220;2023-06-24T07:23:05;3;2;0
54021;PMS7003;39936;51.058;17.220;2023-06-24T07:26:33;3;1;0
54021;PMS7003;39936;51.058;17.220;2023-06-24T07:29:55;4;2;1
54021;PMS7003;39936;51.058;17.220;2023-06-24T07:33:19;12;7;4
54021;PMS7003;39936;51.058;17.220;2023-06-24T07:36:40;6;5;2
54021;PMS7003;39936;51.058;17.220;2023-06-24T07:40:02;4;4;1
54021;PMS7003;39936;51.058;17.220;2023-06-24T07:43:26;5;5;3
54021;PMS7003;39936;51.058;17.220;2023-06-24T07:47:20;3;3;0
54021;PMS7003;39936;51.058;17.220;2023-06-24T07:54:30;7;7;4
54021;PMS7003;39936;51.058;17.220;2023-06-24T07:58:02;9;5;4
54021;PMS7003;39936;51.058;17.220;2023-06-24T08:01:34;4;3;1
54021;PMS7003;39936;51.058;17.220;2023-06-24T08:04:57;4;1;0
54021;PMS7003;39936;51.058;17.220;2023-06-24T08:09:00;5;4;2
54021;PMS7003;39936;51.058;17.220;2023-06-24T08:12:16;3;1;0
54021;PMS7003;39936;51.058;17.220;2023-06-24T08:15:37;4;4;2
54021;PMS7003;39936;51.058;17.220;2023-06-24T08:19:10;5;5;1
54021;PMS7003;39936;51.058;17.220;2023-06-24T08:22:28;3;3;0
54021;PMS7003;39936;51.058;17.220;2023-06-24T08:25:48;6;2;1
54021;PMS7003;39936;51.058;17.220;2023-06-24T08:29:10;1;1;0
54021;PMS7003;39936;51.058;17.220;2023-06-24T08:32:31;2;2;0
54021;PMS7003;39936;51.058;17.220;2023-06-24T08:36:12;4;3;2
54021;PMS7003;39936;51.058;17.220;2023-06-24T08:39:46;4;3;2
54021;PMS7003;39936;51.058;17.220;2023-06-24T08:43:41;5;4;4
54021;PMS7003;39936;51.058;17.220;2023-06-24T08:46:56;8;6;4
54021;PMS7003;39936;51.058;17.220;2023-06-24T08:50:18;0;0;0
54021;PMS7003;39936;51.058;17.220;2023-06-24T08:53:38;4;4;2
54021;PMS7003;39936;51.058;17.220;2023-06-24T08:57:03;6;4;2
54021;PMS7003;39936;51.058;17.220;2023-06-24T09:00:28;1;0;0
54021;PMS7003;39936;51.058;17.220;2023-06-24T09:03:49;4;4;2
54021;PMS7003;39936;51.058;17.220;2023-06-24T09:07:14;4;3;1
54021;PMS7003;39936;51.058;17.220;2023-06-24T09:10:54;2;1;0
54021;PMS7003;39936;51.058;17.220;2023-06-24T09:14:12;2;1;0
54021;PMS7003;39936;51.058;17.220;2023-06-24T09:17:32;2;0;0
54021;PMS7003;39936;51.058;17.220;2023-06-24T09:20:56;3;2;0
54021;PMS7003;39936;51.058;17.220;2023-06-24T09:24:17;2;2;1
54021;PMS7003;39936;51.058;17.220;2023-06-24T09:27:39;1;1;0
54021;PMS7003;39936;51.058;17.220;2023-06-24T09:35:10;3;3;2
54021;PMS7003;39936;51.058;17.220;2023-06-24T09:46:12;2;0;0
54021;PMS7003;39936;51.058;17.220;2023-06-24T09:49:34;1;1;0
54021;PMS7003;39936;51.058;17.220;2023-06-24T09:53:38;5;0;0
54021;PMS7003;39936;51.058;17.220;2023-06-24T09:57:25;2;1;1
54021;PMS7003;39936;51.058;17.220;2023-06-24T10:00:50;2;2;0
54021;PMS7003;39936;51.058;17.220;2023-06-24T10:04:17;2;2;1
54021;PMS7003;39936;51.058;17.220;2023-06-24T10:07:40;6;4;3
54021;PMS7003;39936;51.058;17.220;2023-06-24T10:11:02;4;2;1
54021;PMS7003;39936;51.058;17.220;2023-06-24T10:14:42;0;0;0
54021;PMS7003;39936;51.058;17.220;2023-06-24T10:22:45;5;4;3
54021;PMS7003;39936;51.058;17.220;2023-06-24T10:26:21;2;2;1
54021;PMS7003;39936;51.058;17.220;2023-06-24T10:29:50;2;2;0
54021;PMS7003;39936;51.058;17.220;2023-06-24T10:33:23;0;0;0
54021;PMS7003;39936;51.058;17.220;2023-06-24T10:36:41;0;0;0
54021;PMS7003;39936;51.058;17.220;2023-06-24T10:40:37;7;4;3
54021;PMS7003;39936;51.058;17.220;2023-06-24T10:44:14;2;2;1
54021;PMS7003;39936;51.058;17.220;2023-06-24T10:47:28;0;0;0
54021;PMS7003;39936;51.058;17.220;2023-06-24T10:50:50;5;3;0
54021;PMS7003;39936;51.058;17.220;2023-06-24T10:54:12;0;0;0
54021;PMS7003;39936;51.058;17.220;2023-06-24T10:57:32;0;0;0
54021;PMS7003;39936;51.058;17.220;2023-06-24T11:01:08;2;1;0
54021;PMS7003;39936;51.058;17.220;2023-06-24T11:08:08;3;3;1
54021;PMS7003;39936;51.058;17.220;2023-06-24T11:11:35;1;1;0
54021;PMS7003;39936;51.058;17.220;2023-06-24T11:14:56;1;1;0
54021;PMS7003;39936;51.058;17.220;2023-06-24T11:18:26;7;6;2
54021;PMS7003;39936;51.058;17.220;2023-06-24T11:21:59;0;0;0
54021;PMS7003;39936;51.058;17.220;2023-06-24T11:25:18;3;2;1
54021;PMS7003;39936;51.058;17.220;2023-06-24T11:28:47;10;7;3
54021;PMS7003;39936;51.058;17.220;2023-06-24T11:32:19;1;0;0
54021;PMS7003;39936;51.058;17.220;2023-06-24T11:35:31;0;0;0
54021;PMS7003;39936;51.058;17.220;2023-06-24T11:38:57;3;0;0
54021;PMS7003;39936;51.058;17.220;2023-06-24T11:42:24;0;0;0
54021;PMS7003;39936;51.058;17.220;2023-06-24T11:45:42;2;2;0
54021;PMS7003;39936;51.058;17.220;2023-06-24T11:56:18;2;1;0
54021;PMS7003;39936;51.058;17.220;2023-06-24T11:59:43;0;0;0
54021;PMS7003;39936;51.058;17.220;2023-06-24T12:03:14;0;0;0
54021;PMS7003;39936;51.058;17.220;2023-06-24T12:06:43;0;0;0
54021;PMS7003;39936;51.058;17.220;2023-06-24T12:14:38;0;0;0
54021;PMS7003;39936;51.058;17.220;2023-06-24T12:18:08;0;0;0
54021;PMS7003;39936;51.058;17.220;2023-06-24T12:22:10;0;0;0
54021;PMS7003;39936;51.058;17.220;2023-06-24T12:26:02;2;2;2
54021;PMS7003;39936;51.058;17.220;2023-06-24T12:30:06;1;1;1
54021;PMS7003;39936;51.058;17.220;2023-06-24T12:33:20;0;0;0
54021;PMS7003;39936;51.058;17.220;2023-06-24T12:36:44;1;0;0
54021;PMS7003;39936;51.058;17.220;2023-06-24T12:40:08;0;0;0
54021;PMS7003;39936;51.058;17.220;2023-06-24T12:43:28;0;0;0
54021;PMS7003;39936;51.058;17.220;2023-06-24T12:47:12;0;0;0
54021;PMS7003;39936;51.058;17.220;2023-06-24T12:50:30;0;0;0
54021;PMS7003;39936;51.058;17.220;2023-06-24T12:54:19;0;0;0
54021;PMS7003;39936;51.058;17.220;2023-06-24T12:58:22;0;0;0
54021;PMS7003;39936;51.058;17.220;2023-06-24T13:02:05;2;0;0
54021;PMS7003;39936;51.058;17.220;2023-06-24T13:05:47;0;0;0
54021;PMS7003;39936;51.058;17.220;2023-06-24T13:10:20;0;0;0
54021;PMS7003;39936;51.058;17.220;2023-06-24T13:14:18;0;0;0
54021;PMS7003;39936;51.058;17.220;2023-06-24T13:17:53;0;0;0
54021;PMS7003;39936;51.058;17.220;2023-06-24T13:21:38;1;1;0
54021;PMS7003;39936;51.058;17.220;2023-06-24T13:25:30;0;0;0
54021;PMS7003;39936;51.058;17.220;2023-06-24T13:28:44;0;0;0
54021;PMS7003;39936;51.058;17.220;2023-06-24T13:32:16;0;0;0
54021;PMS7003;39936;51.058;17.220;2023-06-24T13:35:37;3;3;3
54021;PMS7003;39936;51.058;17.220;2023-06-24T13:39:20;0;0;0
54021;PMS7003;39936;51.058;17.220;2023-06-24T13:43:06;3;3;1
54021;PMS7003;39936;51.058;17.220;2023-06-24T13:50:38;4;2;0
54021;PMS7003;39936;51.058;17.220;2023-06-24T13:54:41;2;1;0
54021;PMS7003;39936;51.058;17.220;2023-06-24T13:59:21;0;0;0
54021;PMS7003;39936;51.058;17.220;2023-06-24T14:03:03;1;1;0
54021;PMS7003;39936;51.058;17.220;2023-06-24T14:06:32;5;3;1
54021;PMS7003;39936;51.058;17.220;2023-06-24T14:09:52;0;0;0
54021;PMS7003;39936;51.058;17.220;2023-06-24T14:17:37;4;3;2
54021;PMS7003;39936;51.058;17.220;2023-06-24T14:21:03;1;1;0
54021;PMS7003;39936;51.058;17.220;2023-06-24T14:28:45;4;4;2
54021;PMS7003;39936;51.058;17.220;2023-06-24T14:33:12;6;4;0
54021;PMS7003;39936;51.058;17.220;2023-06-24T14:37:03;2;2;0
54021;PMS7003;39936;51.058;17.220;2023-06-24T14:41:08;0;0;0
54021;PMS7003;39936;51.058;17.220;2023-06-24T14:44:31;0;0;0
54021;PMS7003;39936;51.058;17.220;2023-06-24T14:48:09;0;0;0
54021;PMS7003;39936;51.058;17.220;2023-06-24T14:52:07;1;1;1
54021;PMS7003;39936;51.058;17.220;2023-06-24T14:56:10;0;0;0
54021;PMS7003;39936;51.058;17.220;2023-06-24T14:59:39;0;0;0
54021;PMS7003;39936;51.058;17.220;2023-06-24T15:03:09;0;0;0
54021;PMS7003;39936;51.058;17.220;2023-06-24T15:11:30;0;0;0
54021;PMS7003;39936;51.058;17.220;2023-06-24T15:15:00;0;0;0
54021;PMS7003;39936;51.058;17.220;2023-06-24T15:18:39;0;0;0
54021;PMS7003;39936;51.058;17.220;2023-06-24T15:22:00;0;0;0
54021;PMS7003;39936;51.058;17.220;2023-06-24T15:26:14;0;0;0
54021;PMS7003;39936;51.058;17.220;2023-06-24T15:34:18;0;0;0
54021;PMS7003;39936;51.058;17.220;2023-06-24T15:37:42;0;0;0
54021;PMS7003;39936;51.058;17.220;2023-06-24T15:41:13;1;1;0
54021;PMS7003;39936;51.058;17.220;2023-06-24T15:44:43;2;2;1
54021;PMS7003;39936;51.058;17.220;2023-06-24T15:48:05;2;1;0
54021;PMS7003;39936;51.058;17.220;2023-06-24T15:52:19;1;1;0
54021;PMS7003;39936;51.058;17.220;2023-06-24T15:55:40;2;2;1
54021;PMS7003;39936;51.058;17.220;2023-06-24T15:59:20;0;0;0
54021;PMS7003;39936;51.058;17.220;2023-06-24T16:03:07;3;1;1
54021;PMS7003;39936;51.058;17.220;2023-06-24T16:06:23;2;2;2
54021;PMS7003;39936;51.058;17.220;2023-06-24T16:10:07;4;4;2
54021;PMS7003;39936;51.058;17.220;2023-06-24T16:14:00;1;1;0
54021;PMS7003;39936;51.058;17.220;2023-06-24T16:17:20;0;0;0
54021;PMS7003;39936;51.058;17.220;2023-06-24T16:20:44;2;2;1
54021;PMS7003;39936;51.058;17.220;2023-06-24T16:24:35;2;2;0
54021;PMS7003;39936;51.058;17.220;2023-06-24T16:27:58;0;0;0
54021;PMS7003;39936;51.058;17.220;2023-06-24T16:31:50;1;1;0
54021;PMS7003;39936;51.058;17.220;2023-06-24T16:35:10;0;0;0
54021;PMS7003;39936;51.058;17.220;2023-06-24T16:38:29;1;0;0
54021;PMS7003;39936;51.058;17.220;2023-06-24T16:42:27;1;1;0
54021;PMS7003;39936;51.058;17.220;2023-06-24T16:46:06;2;1;0
54021;PMS7003;39936;51.058;17.220;2023-06-24T16:49:46;1;1;0
54021;PMS7003;39936;51.058;17.220;2023-06-24T16:53:05;4;2;1
54021;PMS7003;39936;51.058;17.220;2023-06-24T16:56:36;0;0;0
54021;PMS7003;39936;51.058;17.220;2023-06-24T17:00:04;0;0;0
54021;PMS7003;39936;51.058;17.220;2023-06-24T17:03:56;0;0;0
54021;PMS7003;39936;51.058;17.220;2023-06-24T17:07:42;0;0;0
54021;PMS7003;39936;51.058;17.220;2023-06-24T17:15:29;0;0;0
54021;PMS7003;39936;51.058;17.220;2023-06-24T17:18:57;9;6;0
54021;PMS7003;39936;51.058;17.220;2023-06-24T17:22:29;3;1;0
54021;PMS7003;39936;51.058;17.220;2023-06-24T17:25:51;1;1;0
54021;PMS7003;39936;51.058;17.220;2023-06-24T17:29:42;1;1;0
54021;PMS7003;39936;51.058;17.220;2023-06-24T17:33:05;0;0;0
54021;PMS7003;39936;51.058;17.220;2023-06-24T17:36:38;2;2;0
54021;PMS7003;39936;51.058;17.220;2023-06-24T17:39:56;2;0;0
54021;PMS7003;39936;51.058;17.220;2023-06-24T17:43:58;2;2;0
54021;PMS7003;39936;51.058;17.220;2023-06-24T17:47:27;0;0;0
54021;PMS7003;39936;51.058;17.220;2023-06-24T17:51:11;2;2;1
54021;PMS7003;39936;51.058;17.220;2023-06-24T17:54:43;4;2;1
54021;PMS7003;39936;51.058;17.220;2023-06-24T17:58:04;1;0;0
54021;PMS7003;39936;51.058;17.220;2023-06-24T18:01:25;4;2;1
54021;PMS7003;39936;51.058;17.220;2023-06-24T18:04:47;1;1;1
54021;PMS7003;39936;51.058;17.220;2023-06-24T18:08:07;2;1;1
54021;PMS7003;39936;51.058;17.220;2023-06-24T18:11:28;3;2;1
54021;PMS7003;39936;51.058;17.220;2023-06-24T18:14:59;4;4;3
54021;PMS7003;39936;51.058;17.220;2023-06-24T18:18:28;0;0;0
54021;PMS7003;39936;51.058;17.220;2023-06-24T18:21:50;0;0;0
54021;PMS7003;39936;51.058;17.220;2023-06-24T18:25:15;4;3;1
54021;PMS7003;39936;51.058;17.220;2023-06-24T18:28:52;2;1;1
54021;PMS7003;39936;51.058;17.220;2023-06-24T18:32:12;1;1;0
54021;PMS7003;39936;51.058;17.220;2023-06-24T18:35:35;4;2;1
54021;PMS7003;39936;51.058;17.220;2023-06-24T18:39:11;3;1;0
54021;PMS7003;39936;51.058;17.220;2023-06-24T18:42:30;4;2;1
54021;PMS7003;39936;51.058;17.220;2023-06-24T18:45:51;5;2;1
54021;PMS7003;39936;51.058;17.220;2023-06-24T18:49:11;3;3;3
54021;PMS7003;39936;51.058;17.220;2023-06-24T18:52:43;3;3;1
54021;PMS7003;39936;51.058;17.220;2023-06-24T18:56:23;1;0;0
54021;PMS7003;39936;51.058;17.220;2023-06-24T18:59:41;0;0;0
54021;PMS7003;39936;51.058;17.220;2023-06-24T19:03:03;2;2;1
54021;PMS7003;39936;51.058;17.220;2023-06-24T19:06:20;2;2;1
54021;PMS7003;39936;51.058;17.220;2023-06-24T19:09:39;2;2;1
54021;PMS7003;39936;51.058;17.220;2023-06-24T19:13:03;2;1;0
54021;PMS7003;39936;51.058;17.220;2023-06-24T19:16:22;0;0;0
54021;PMS7003;39936;51.058;17.220;2023-06-24T19:19:40;0;0;0
54021;PMS7003;39936;51.058;17.220;2023-06-24T19:23:14;3;1;0
54021;PMS7003;39936;51.058;17.220;2023-06-24T19:26:55;4;4;2
54021;PMS7003;39936;51.058;17.220;2023-06-24T19:30:30;2;2;2
54021;PMS7003;39936;51.058;17.220;2023-06-24T19:33:48;0;0;0
54021;PMS7003;39936;51.058;17.220;2023-06-24T19:37:05;0;0;0
54021;PMS7003;39936;51.058;17.220;2023-06-24T19:40:25;0;0;0
54021;PMS7003;39936;51.058;17.220;2023-06-24T19:43:47;3;2;2
54021;PMS7003;39936;51.058;17.220;2023-06-24T19:47:09;0;0;0
54021;PMS7003;39936;51.058;17.220;2023-06-24T19:51:02;3;3;1
54021;PMS7003;39936;51.058;17.220;2023-06-24T19:54:59;3;3;1
54021;PMS7003;39936;51.058;17.220;2023-06-24T19:58:15;0;0;0
54021;PMS7003;39936;51.058;17.220;2023-06-24T20:01:36;0;0;0
54021;PMS7003;39936;51.058;17.220;2023-06-24T20:08:51;1;1;0
54021;PMS7003;39936;51.058;17.220;2023-06-24T20:12:13;2;2;1
54021;PMS7003;39936;51.058;17.220;2023-06-24T20:15:53;5;4;2
54021;PMS7003;39936;51.058;17.220;2023-06-24T20:19:15;4;2;0
54021;PMS7003;39936;51.058;17.220;2023-06-24T20:22:49;3;1;0
54021;PMS7003;39936;51.058;17.220;2023-06-24T20:26:22;1;0;0
54021;PMS7003;39936;51.058;17.220;2023-06-24T20:33:37;3;2;1
54021;PMS7003;39936;51.058;17.220;2023-06-24T20:37:18;2;1;1
54021;PMS7003;39936;51.058;17.220;2023-06-24T20:48:25;0;0;0
54021;PMS7003;39936;51.058;17.220;2023-06-24T20:51:47;3;2;1
54021;PMS7003;39936;51.058;17.220;2023-06-24T20:55:47;4;3;1
54021;PMS7003;39936;51.058;17.220;2023-06-24T20:59:23;0;0;0
54021;PMS7003;39936;51.058;17.220;2023-06-24T21:02:59;1;1;1
54021;PMS7003;39936;51.058;17.220;2023-06-24T21:06:46;5;4;2
54021;PMS7003;39936;51.058;17.220;2023-06-24T21:14:29;0;0;0
54021;PMS7003;39936;51.058;17.220;2023-06-24T21:17:47;4;4;2
54021;PMS7003;39936;51.058;17.220;2023-06-24T21:21:07;2;2;2
54021;PMS7003;39936;51.058;17.220;2023-06-24T21:24:46;3;2;1
54021;PMS7003;39936;51.058;17.220;2023-06-24T21:28:19;2;2;0
54021;PMS7003;39936;51.058;17.220;2023-06-24T21:35:47;0;0;0
54021;PMS7003;39936;51.058;17.220;2023-06-24T21:39:17;2;1;1
54021;PMS7003;39936;51.058;17.220;2023-06-24T21:42:36;0;0;0
54021;PMS7003;39936;51.058;17.220;2023-06-24T21:45:48;0;0;0
54021;PMS7003;39936;51.058;17.220;2023-06-24T21:49:07;1;1;0
54021;PMS7003;39936;51.058;17.220;2023-06-24T21:52:24;0;0;0
54021;PMS7003;39936;51.058;17.220;2023-06-24T21:55:38;0;0;0
54021;PMS7003;39936;51.058;17.220;2023-06-24T21:59:03;0;0;0
54021;PMS7003;39936;51.058;17.220;2023-06-24T22:03:05;0;0;0
54021;PMS7003;39936;51.058;17.220;2023-06-24T22:06:40;0;0;0
54021;PMS7003;39936;51.058;17.220;2023-06-24T22:09:54;0;0;0
54021;PMS7003;39936;51.058;17.220;2023-06-24T22:13:46;0;0;0
54021;PMS7003;39936;51.058;17.220;2023-06-24T22:17:02;3;1;0
54021;PMS7003;39936;51.058;17.220;2023-06-24T22:20:27;0;0;0
54021;PMS7003;39936;51.058;17.220;2023-06-24T22:23:38;0;0;0
54021;PMS7003;39936;51.058;17.220;2023-06-24T22:26:57;0;0;0
54021;PMS7003;39936;51.058;17.220;2023-06-24T22:30:37;0;0;0
54021;PMS7003;39936;51.058;17.220;2023-06-24T22:33:56;0;0;0
54021;PMS7003;39936;51.058;17.220;2023-06-24T22:37:07;0;0;0
54021;PMS7003;39936;51.058;17.220;2023-06-24T22:40:25;0;0;0
54021;PMS7003;39936;51.058;17.220;2023-06-24T22:43:44;3;1;1
54021;PMS7003;39936;51.058;17.220;2023-06-24T22:47:28;5;2;1
54021;PMS7003;39936;51.058;17.220;2023-06-24T22:50:57;0;0;0
54021;PMS7003;39936;51.058;17.220;2023-06-24T22:54:40;2;2;2
54021;PMS7003;39936;51.058;17.220;2023-06-24T22:57:58;2;1;0
54021;PMS7003;39936;51.058;17.220;2023-06-24T23:05:44;0;0;0
54021;PMS7003;39936;51.058;17.220;2023-06-24T23:09:36;1;1;0
54021;PMS7003;39936;51.058;17.220;2023-06-24T23:12:47;0;0;0
54021;PMS7003;39936;51.058;17.220;2023-06-24T23:16:23;1;1;0
54021;PMS7003;39936;51.058;17.220;2023-06-24T23:19:46;0;0;0
54021;PMS7003;39936;51.058;17.220;2023-06-24T23:23:02;0;0;0
54021;PMS7003;39936;51.058;17.220;2023-06-24T23:26:16;2;2;1
54021;PMS7003;39936;51.058;17.220;2023-06-24T23:29:27;0;0;0
54021;PMS7003;39936;51.058;17.220;2023-06-24T23:32:41;1;1;0
54021;PMS7003;39936;51.058;17.220;2023-06-24T23:35:56;0;0;0
54021;PMS7003;39936;51.058;17.220;2023-06-24T23:39:55;0;0;0
54021;PMS7003;39936;51.058;17.220;2023-06-24T23:46:50;2;2;1
54021;PMS7003;39936;51.058;17.220;2023-06-24T23:50:15;0;0;0
54021;PMS7003;39936;51.058;17.220;2023-06-24T23:57:32;0;0;0
